Time;durP1;ratioP1;P1;durP2;ratioP2;P2;SDS_P1;SDS_P2;PMS_P1;PMS_P2;Temp;Humidity;BMP_temperature;BMP_pressure;BME280_temperature;BME280_humidity;BME280_pressure;Samples;Min_cycle;Max_cycle;Signal;HPM_P1;HPM_P2
2021/10/08 00:00:09;;;;;;;1.67;1.40;;;;;;;;;;4528855;28;20041;-67
2021/10/08 00:02:27;;;;;;;1.63;1.40;;;;;;;;;;4509108;28;20045;-67
2021/10/08 00:04:37;;;;;;;1.30;1.20;;;;;;;;;;4493483;28;20446;-68
2021/10/08 00:06:48;;;;;;;1.37;1.17;;;;;;;;;;4527086;28;20036;-68
2021/10/08 00:08:58;;;;;;;1.43;1.27;;;;;;;;;;4527957;28;26185;-67
2021/10/08 00:11:09;;;;;;;1.40;1.30;;;;;;;;;;4510302;28;20704;-67
2021/10/08 00:13:19;;;;;;;2.40;1.37;;;;;;;;;;4527443;28;20037;-67
2021/10/08 00:15:30;;;;;;;1.50;1.40;;;;;;;;;;4527206;28;24764;-66
2021/10/08 00:17:40;;;;;;;1.37;1.07;;;;;;;;;;4509879;28;20080;-66
2021/10/08 00:19:51;;;;;;;1.40;1.30;;;;;;;;;;4511882;28;20478;-67
2021/10/08 00:22:01;;;;;;;1.30;1.20;;;;;;;;;;4529114;28;20030;-66
2021/10/08 00:24:12;;;;;;;1.40;1.30;;;;;;;;;;4511423;28;20042;-66
2021/10/08 00:26:22;;;;;;;1.43;1.13;;;;;;;;;;4508464;28;20040;-66
2021/10/08 00:28:33;;;;;;;1.80;1.53;;;;;;;;;;4527157;28;25034;-67
2021/10/08 00:30:43;;;;;;;2.17;1.50;;;;;;;;;;4495308;28;20079;-67
2021/10/08 00:32:54;;;;;;;1.40;1.10;;;;;;;;;;4529093;28;20029;-67
2021/10/08 00:35:06;;;;;;;0.93;0.80;;;;;;;;;;4493772;28;20046;-68
2021/10/08 00:37:17;;;;;;;0.82;0.82;;;;;;;;;;4527785;28;20099;-67
2021/10/08 00:39:27;;;;;;;1.10;1.00;;;;;;;;;;4528607;28;25233;-67
2021/10/08 00:41:37;;;;;;;1.43;1.33;;;;;;;;;;4509218;28;20033;-67
2021/10/08 00:43:48;;;;;;;1.70;1.20;;;;;;;;;;4512124;28;20046;-67
2021/10/08 00:45:58;;;;;;;1.87;1.57;;;;;;;;;;4511066;28;20045;-68
2021/10/08 00:48:09;;;;;;;1.60;1.40;;;;;;;;;;4527220;28;20707;-67
2021/10/08 00:50:19;;;;;;;1.50;1.33;;;;;;;;;;4525389;28;20037;-68
2021/10/08 00:52:30;;;;;;;1.87;1.50;;;;;;;;;;4509095;28;20124;-68
2021/10/08 00:54:40;;;;;;;1.50;1.37;;;;;;;;;;4528183;28;20155;-67
2021/10/08 00:56:52;;;;;;;1.57;0.93;;;;;;;;;;4525874;28;20025;-67
2021/10/08 00:59:03;;;;;;;1.42;1.08;;;;;;;;;;4509040;28;20026;-67
2021/10/08 01:01:15;;;;;;;0.85;0.85;;;;;;;;;;4526596;28;20030;-68
2021/10/08 01:03:26;;;;;;;1.00;0.90;;;;;;;;;;4509839;28;20129;-68
2021/10/08 01:05:37;;;;;;;0.80;0.77;;;;;;;;;;4514677;28;21756;-67
2021/10/08 01:07:49;;;;;;;1.52;1.02;;;;;;;;;;4530796;28;20029;-67
2021/10/08 01:10:01;;;;;;;1.13;1.00;;;;;;;;;;4511598;28;20038;-68
2021/10/08 01:12:13;;;;;;;1.58;1.20;;;;;;;;;;4530704;28;20091;-68
2021/10/08 01:14:24;;;;;;;1.43;1.13;;;;;;;;;;4513206;28;20152;-67
2021/10/08 01:16:37;;;;;;;1.27;1.17;;;;;;;;;;4522027;28;20068;-68
2021/10/08 01:18:48;;;;;;;1.23;1.10;;;;;;;;;;4511681;28;20181;-68
2021/10/08 01:20:58;;;;;;;1.40;1.30;;;;;;;;;;4522369;28;20028;-67
2021/10/08 01:23:09;;;;;;;1.40;1.10;;;;;;;;;;4511524;28;20045;-68
2021/10/08 01:25:29;;;;;;;1.20;1.10;;;;;;;;;;4512027;28;20041;-68
2021/10/08 01:27:42;;;;;;;1.25;1.13;;;;;;;;;;4514304;28;20025;-68
2021/10/08 01:30:02;;;;;;;1.90;1.00;;;;;;;;;;4523536;28;20068;-68
2021/10/08 01:32:25;;;;;;;1.00;0.90;;;;;;;;;;4512817;28;20036;-68
2021/10/08 01:34:35;;;;;;;0.80;0.80;;;;;;;;;;4515972;28;20034;-68
2021/10/08 01:36:46;;;;;;;1.30;1.00;;;;;;;;;;4531051;28;20034;-68
2021/10/08 01:38:56;;;;;;;1.03;0.93;;;;;;;;;;4511493;28;20252;-68
2021/10/08 01:41:07;;;;;;;1.10;0.77;;;;;;;;;;4512637;28;20478;-67
2021/10/08 01:43:17;;;;;;;0.80;0.80;;;;;;;;;;4516245;28;20120;-68
2021/10/08 01:45:30;;;;;;;0.65;0.65;;;;;;;;;;4531153;28;20053;-68
2021/10/08 01:47:40;;;;;;;0.80;0.80;;;;;;;;;;4511914;28;20045;-68
2021/10/08 01:49:53;;;;;;;1.02;0.93;;;;;;;;;;4512272;28;20037;-67
2021/10/08 01:52:05;;;;;;;1.08;0.98;;;;;;;;;;4498396;28;20030;-68
2021/10/08 01:54:20;;;;;;;1.33;1.00;;;;;;;;;;4495758;28;20034;-67
2021/10/08 01:56:31;;;;;;;1.23;1.13;;;;;;;;;;4499278;28;20026;-68
2021/10/08 01:58:45;;;;;;;1.20;1.10;;;;;;;;;;4515674;28;20042;-68
2021/10/08 02:00:55;;;;;;;1.40;1.07;;;;;;;;;;4516799;28;20297;-68
2021/10/08 02:03:13;;;;;;;1.00;0.90;;;;;;;;;;4514648;28;20038;-68
2021/10/08 02:05:24;;;;;;;1.10;1.00;;;;;;;;;;4513864;28;20425;-68
2021/10/08 02:07:36;;;;;;;0.80;0.80;;;;;;;;;;4529251;28;20116;-68
2021/10/08 02:09:51;;;;;;;1.33;1.10;;;;;;;;;;4505049;28;20056;-68
2021/10/08 02:14:37;;;;;;;1.10;1.00;;;;;;;;;;4497305;22;20711;-67
2021/10/08 02:16:47;;;;;;;1.50;1.10;;;;;;;;;;4512612;28;20038;-67
2021/10/08 02:18:58;;;;;;;1.20;1.10;;;;;;;;;;4526711;28;20111;-68
2021/10/08 02:21:09;;;;;;;1.80;1.20;;;;;;;;;;4530795;28;20037;-68
2021/10/08 02:23:23;;;;;;;1.58;1.23;;;;;;;;;;4526011;28;20135;-68
2021/10/08 02:25:34;;;;;;;;;;;;;;;;;;4494774;28;20117;-68
2021/10/08 02:27:45;;;;;;;1.63;1.40;;;;;;;;;;4511491;28;19910;-68
2021/10/08 02:29:57;;;;;;;1.73;1.40;;;;;;;;;;4508897;28;20632;-68
2021/10/08 02:32:08;;;;;;;1.47;1.13;;;;;;;;;;4507359;28;20026;-68
2021/10/08 02:34:19;;;;;;;1.17;1.08;;;;;;;;;;4522577;28;20029;-68
2021/10/08 02:36:30;;;;;;;2.83;1.58;;;;;;;;;;4496880;28;20053;-68
2021/10/08 02:38:41;;;;;;;1.70;1.27;;;;;;;;;;4511665;28;20064;-68
2021/10/08 02:40:52;;;;;;;1.35;1.10;;;;;;;;;;4528329;28;20116;-68
2021/10/08 02:43:03;;;;;;;0.87;0.87;;;;;;;;;;4504031;28;20125;-68
2021/10/08 02:45:15;;;;;;;0.68;0.68;;;;;;;;;;4495198;28;20089;-68
2021/10/08 02:47:25;;;;;;;0.77;0.77;;;;;;;;;;4499162;28;20612;-68
2021/10/08 02:49:36;;;;;;;0.80;0.80;;;;;;;;;;4520571;28;20104;-68
2021/10/08 02:51:48;;;;;;;0.90;0.73;;;;;;;;;;4499009;28;20038;-68
2021/10/08 02:53:58;;;;;;;0.75;0.60;;;;;;;;;;4510299;28;20041;-68
2021/10/08 02:56:09;;;;;;;0.50;0.50;;;;;;;;;;4498541;28;20042;-68
2021/10/08 02:58:19;;;;;;;0.60;0.60;;;;;;;;;;4527678;28;20087;-68
2021/10/08 03:00:30;;;;;;;0.60;0.60;;;;;;;;;;4515550;28;20396;-68
2021/10/08 03:02:41;;;;;;;0.63;0.63;;;;;;;;;;4510428;28;20026;-68
2021/10/08 03:04:51;;;;;;;1.17;0.73;;;;;;;;;;4520111;28;20049;-68
2021/10/08 03:07:02;;;;;;;1.57;0.63;;;;;;;;;;4520988;28;20693;-68
2021/10/08 03:09:13;;;;;;;0.67;0.67;;;;;;;;;;4510375;28;20037;-68
2021/10/08 03:11:25;;;;;;;0.50;0.50;;;;;;;;;;4520664;28;20297;-68
2021/10/08 03:13:36;;;;;;;0.65;0.65;;;;;;;;;;4509551;28;20145;-68
2021/10/08 03:15:46;;;;;;;0.80;0.80;;;;;;;;;;4526731;28;30157;-68
2021/10/08 03:17:57;;;;;;;0.80;0.80;;;;;;;;;;4496151;28;20726;-68
2021/10/08 03:20:09;;;;;;;1.03;0.77;;;;;;;;;;4527160;28;20507;-68
2021/10/08 03:22:19;;;;;;;0.75;0.75;;;;;;;;;;4506232;28;20078;-68
2021/10/08 03:24:31;;;;;;;0.65;0.65;;;;;;;;;;4509572;28;20046;-68
2021/10/08 03:26:42;;;;;;;0.80;0.80;;;;;;;;;;4526890;28;20037;-68
2021/10/08 03:28:53;;;;;;;0.60;0.60;;;;;;;;;;4513291;28;20107;-68
2021/10/08 03:31:04;;;;;;;1.10;0.83;;;;;;;;;;4497995;28;20053;-68
2021/10/08 03:33:15;;;;;;;0.90;0.70;;;;;;;;;;4497927;28;20034;-68
2021/10/08 03:35:27;;;;;;;0.85;0.70;;;;;;;;;;4514209;28;20129;-68
2021/10/08 03:39:48;;;;;;;0.70;0.70;;;;;;;;;;4527892;28;20033;-68
2021/10/08 03:41:59;;;;;;;0.60;0.60;;;;;;;;;;4525533;28;20562;-68
2021/10/08 03:44:10;;;;;;;2.77;1.00;;;;;;;;;;4520223;28;20103;-68
2021/10/08 03:46:21;;;;;;;1.00;0.90;;;;;;;;;;4527132;28;20582;-68
2021/10/08 03:50:42;;;;;;;1.00;0.90;;;;;;;;;;4497191;28;20045;-69
2021/10/08 03:52:53;;;;;;;1.43;0.60;;;;;;;;;;4493697;28;20065;-69
2021/10/08 03:55:04;;;;;;;0.60;0.60;;;;;;;;;;4510980;28;20041;-69
2021/10/08 03:57:14;;;;;;;0.60;0.60;;;;;;;;;;4527736;28;20041;-69
2021/10/08 03:59:24;;;;;;;0.67;0.67;;;;;;;;;;4493267;28;20054;-69
2021/10/08 04:01:35;;;;;;;0.60;0.60;;;;;;;;;;4509851;28;20038;-69
2021/10/08 04:03:46;;;;;;;0.60;0.60;;;;;;;;;;4497093;28;20038;-69
2021/10/08 04:05:57;;;;;;;0.70;0.70;;;;;;;;;;4503773;28;20049;-69
2021/10/08 04:08:08;;;;;;;0.70;0.70;;;;;;;;;;4509325;28;20108;-68
2021/10/08 04:10:20;;;;;;;;;;;;;;;;;;4520497;28;20072;-69
2021/10/08 04:12:30;;;;;;;0.70;0.70;;;;;;;;;;4510554;28;19984;-69
2021/10/08 04:14:42;;;;;;;;;;;;;;;;;;4498229;28;20073;-69
2021/10/08 04:16:52;;;;;;;0.60;0.60;;;;;;;;;;4527550;28;19971;-69
2021/10/08 04:19:05;;;;;;;0.85;0.80;;;;;;;;;;4496234;28;20116;-69
2021/10/08 04:21:16;;;;;;;0.80;0.80;;;;;;;;;;4498199;28;20036;-69
2021/10/08 04:23:27;;;;;;;0.90;0.60;;;;;;;;;;4507566;28;20108;-69
2021/10/08 04:25:37;;;;;;;1.27;0.60;;;;;;;;;;4494279;28;20883;-69
2021/10/08 04:27:48;;;;;;;0.83;0.83;;;;;;;;;;4519744;28;20807;-69
2021/10/08 04:29:58;;;;;;;0.87;0.80;;;;;;;;;;4526709;28;20029;-69
2021/10/08 04:32:09;;;;;;;1.13;1.00;;;;;;;;;;4527214;28;20646;-69
2021/10/08 04:34:20;;;;;;;0.70;0.70;;;;;;;;;;4518498;28;20135;-69
2021/10/08 04:36:32;;;;;;;1.00;0.90;;;;;;;;;;4496091;28;20160;-69
2021/10/08 04:38:43;;;;;;;0.70;0.68;;;;;;;;;;4520065;28;20109;-69
2021/10/08 04:40:55;;;;;;;0.70;0.70;;;;;;;;;;4526253;28;20037;-69
2021/10/08 04:43:06;;;;;;;0.90;0.70;;;;;;;;;;4505124;28;20022;-69
2021/10/08 04:45:17;;;;;;;0.75;0.70;;;;;;;;;;4513979;28;20052;-68
2021/10/08 04:47:29;;;;;;;1.33;0.77;;;;;;;;;;4493325;28;20038;-69
2021/10/08 04:49:40;;;;;;;0.70;0.70;;;;;;;;;;4526022;28;20033;-69
2021/10/08 04:51:51;;;;;;;0.68;0.68;;;;;;;;;;4519041;28;20725;-69
2021/10/08 04:54:02;;;;;;;0.70;0.70;;;;;;;;;;4526090;28;20087;-69
2021/10/08 04:56:13;;;;;;;1.05;0.90;;;;;;;;;;4508708;28;20041;-69
2021/10/08 04:58:24;;;;;;;0.93;0.87;;;;;;;;;;4518020;28;20500;-69
2021/10/08 05:00:37;;;;;;;0.80;0.80;;;;;;;;;;4521344;28;20230;-69
2021/10/08 05:02:47;;;;;;;0.98;0.88;;;;;;;;;;4525307;28;20260;-70
2021/10/08 05:04:58;;;;;;;1.47;0.90;;;;;;;;;;4525186;28;20034;-69
2021/10/08 05:07:08;;;;;;;0.80;0.80;;;;;;;;;;4508056;28;20101;-69
2021/10/08 05:09:19;;;;;;;1.33;1.20;;;;;;;;;;4508579;28;20073;-69
2021/10/08 05:11:30;;;;;;;1.50;1.30;;;;;;;;;;4507750;28;20034;-69
2021/10/08 05:13:40;;;;;;;1.57;1.20;;;;;;;;;;4524139;28;20512;-69
2021/10/08 05:15:51;;;;;;;1.40;1.30;;;;;;;;;;4525398;28;20443;-69
2021/10/08 05:18:02;;;;;;;1.10;1.00;;;;;;;;;;4511704;28;20034;-69
2021/10/08 05:20:12;;;;;;;1.25;1.10;;;;;;;;;;4525329;28;20021;-69
2021/10/08 05:22:31;;;;;;;2.00;1.60;;;;;;;;;;4525845;28;20647;-69
2021/10/08 05:24:41;;;;;;;2.17;1.33;;;;;;;;;;4508076;28;20041;-69
2021/10/08 05:26:53;;;;;;;1.77;1.10;;;;;;;;;;4508920;28;20022;-69
2021/10/08 05:29:03;;;;;;;1.88;1.35;;;;;;;;;;4495246;28;20088;-69
2021/10/08 05:31:14;;;;;;;2.60;1.50;;;;;;;;;;4509765;28;20927;-69
2021/10/08 05:33:25;;;;;;;2.10;1.20;;;;;;;;;;4524687;28;20117;-69
2021/10/08 05:35:35;;;;;;;2.47;1.10;;;;;;;;;;4508695;28;20027;-69
2021/10/08 05:37:46;;;;;;;2.03;1.60;;;;;;;;;;4523474;28;20483;-69
2021/10/08 05:39:58;;;;;;;1.95;1.60;;;;;;;;;;4507157;28;20034;-69
2021/10/08 05:42:09;;;;;;;;;;;;;;;;;;4506465;28;20026;-69
2021/10/08 05:44:20;;;;;;;1.23;0.93;;;;;;;;;;4510625;28;20472;-69
2021/10/08 05:46:30;;;;;;;1.10;0.90;;;;;;;;;;4524819;28;20033;-69
2021/10/08 05:48:41;;;;;;;1.10;1.00;;;;;;;;;;4507458;28;20080;-69
2021/10/08 05:50:52;;;;;;;0.90;0.87;;;;;;;;;;4507865;28;20033;-69
2021/10/08 05:53:03;;;;;;;;;;;;;;;;;;4511612;28;20194;-69
2021/10/08 05:55:14;;;;;;;0.90;0.70;;;;;;;;;;4513872;28;20060;-69
2021/10/08 05:57:24;;;;;;;0.73;0.73;;;;;;;;;;4510326;28;20481;-69
2021/10/08 05:59:35;;;;;;;0.60;0.60;;;;;;;;;;4510991;28;20072;-69
2021/10/08 06:01:46;;;;;;;0.90;0.68;;;;;;;;;;4520510;28;20069;-74
2021/10/08 06:03:58;;;;;;;0.60;0.60;;;;;;;;;;4511167;28;20417;-73
2021/10/08 06:06:08;;;;;;;1.15;0.70;;;;;;;;;;4519839;28;20045;-73
2021/10/08 06:08:19;;;;;;;1.00;0.80;;;;;;;;;;4527487;28;20500;-72
2021/10/08 06:10:33;;;;;;;1.05;0.90;;;;;;;;;;4510704;28;20037;-71
2021/10/08 06:12:43;;;;;;;0.87;0.80;;;;;;;;;;4525892;28;20397;-70
2021/10/08 06:14:54;;;;;;;1.55;1.13;;;;;;;;;;4519303;28;20631;-72
2021/10/08 06:17:05;;;;;;;1.40;1.03;;;;;;;;;;4509690;28;20033;-72
2021/10/08 06:19:16;;;;;;;1.47;1.27;;;;;;;;;;4495672;28;20505;-72
2021/10/08 06:21:28;;;;;;;1.52;1.33;;;;;;;;;;4518757;28;20042;-72
2021/10/08 06:23:39;;;;;;;2.40;1.60;;;;;;;;;;4525641;28;20547;-72
2021/10/08 06:25:49;;;;;;;1.47;1.23;;;;;;;;;;4525298;28;20048;-73
2021/10/08 06:28:00;;;;;;;1.73;1.20;;;;;;;;;;4518688;28;20049;-72
2021/10/08 06:30:13;;;;;;;1.60;1.15;;;;;;;;;;4509310;28;20038;-73
2021/10/08 06:32:24;;;;;;;1.88;1.40;;;;;;;;;;4492186;28;20037;-72
2021/10/08 06:34:35;;;;;;;1.83;1.43;;;;;;;;;;4525959;28;20037;-72
2021/10/08 06:36:45;;;;;;;1.70;1.30;;;;;;;;;;4479228;28;20491;-72
2021/10/08 06:38:55;;;;;;;1.37;1.20;;;;;;;;;;4508588;28;20148;-72
2021/10/08 06:41:06;;;;;;;1.17;1.07;;;;;;;;;;4511684;28;20034;-72
2021/10/08 06:43:17;;;;;;;1.77;1.40;;;;;;;;;;4510481;28;20140;-72
2021/10/08 06:45:39;;;;;;;1.40;1.30;;;;;;;;;;4519770;28;20252;-72
2021/10/08 06:47:52;;;;;;;1.30;1.20;;;;;;;;;;4501912;28;20040;-72
2021/10/08 06:50:05;;;;;;;1.50;1.30;;;;;;;;;;4515802;28;20032;-72
2021/10/08 06:52:16;;;;;;;1.65;1.20;;;;;;;;;;4515888;28;20723;-72
2021/10/08 06:54:29;;;;;;;1.55;1.45;;;;;;;;;;4519204;28;20409;-72
2021/10/08 06:56:39;;;;;;;1.80;1.43;;;;;;;;;;4519705;28;20096;-72
2021/10/08 06:58:55;;;;;;;2.78;1.70;;;;;;;;;;4509031;28;20034;-72
2021/10/08 07:01:07;;;;;;;1.98;1.40;;;;;;;;;;4496744;28;20143;-73
2021/10/08 07:03:18;;;;;;;1.90;1.50;;;;;;;;;;4495155;28;20311;-72
2021/10/08 07:05:30;;;;;;;1.88;1.67;;;;;;;;;;4508656;28;20072;-73
2021/10/08 07:07:42;;;;;;;2.22;1.67;;;;;;;;;;4513037;28;20081;-72
2021/10/08 07:09:53;;;;;;;2.53;1.67;;;;;;;;;;4513151;28;20048;-72
2021/10/08 07:12:04;;;;;;;2.03;1.77;;;;;;;;;;4519726;28;20049;-72
2021/10/08 07:14:15;;;;;;;2.50;1.60;;;;;;;;;;4527262;28;20064;-72
2021/10/08 07:16:25;;;;;;;2.23;1.80;;;;;;;;;;4525904;28;20041;-72
2021/10/08 07:18:38;;;;;;;2.40;1.92;;;;;;;;;;4527483;28;21488;-72
2021/10/08 07:20:48;;;;;;;2.58;1.60;;;;;;;;;;4512486;28;20104;-72
2021/10/08 07:23:00;;;;;;;2.23;1.70;;;;;;;;;;4526437;28;21033;-72
2021/10/08 07:25:11;;;;;;;2.35;1.80;;;;;;;;;;4514099;28;20795;-72
2021/10/08 07:27:22;;;;;;;3.20;1.80;;;;;;;;;;4528379;28;20041;-72
2021/10/08 07:29:33;;;;;;;;;;;;;;;;;;4497846;28;20184;-72
2021/10/08 07:31:44;;;;;;;2.35;1.95;;;;;;;;;;4526177;28;20019;-72
2021/10/08 07:33:54;;;;;;;2.60;2.30;;;;;;;;;;4528093;28;27737;-71
2021/10/08 07:36:05;;;;;;;3.57;2.33;;;;;;;;;;4526337;28;20041;-71
2021/10/08 07:38:15;;;;;;;2.80;2.20;;;;;;;;;;4527030;28;20033;-71
2021/10/08 07:40:27;;;;;;;4.23;2.27;;;;;;;;;;4527631;28;20154;-71
2021/10/08 07:42:37;;;;;;;;;;;;;;;;;;4512623;28;20022;-71
2021/10/08 07:44:48;;;;;;;3.58;2.58;;;;;;;;;;4511012;28;19925;-71
2021/10/08 07:46:58;;;;;;;3.42;2.60;;;;;;;;;;4525743;28;20037;-71
2021/10/08 07:49:09;;;;;;;3.30;2.40;;;;;;;;;;4508416;28;24801;-71
2021/10/08 07:51:20;;;;;;;3.33;2.37;;;;;;;;;;4525339;28;20404;-72
2021/10/08 07:53:31;;;;;;;3.87;2.50;;;;;;;;;;4526060;28;20603;-71
2021/10/08 07:55:42;;;;;;;2.30;2.10;;;;;;;;;;4513622;28;20140;-71
2021/10/08 07:57:52;;;;;;;3.80;2.50;;;;;;;;;;4526771;28;20124;-71
2021/10/08 08:00:05;;;;;;;4.40;3.27;;;;;;;;;;4526820;28;20091;-71
2021/10/08 08:02:23;;;;;;;4.35;3.05;;;;;;;;;;4513328;28;20160;-72
2021/10/08 08:04:33;;;;;;;4.20;2.90;;;;;;;;;;4525889;28;20123;-70
2021/10/08 08:06:44;;;;;;;4.20;3.07;;;;;;;;;;4506782;28;20045;-71
2021/10/08 08:08:54;;;;;;;3.80;3.20;;;;;;;;;;4526502;28;20034;-71
2021/10/08 08:11:05;;;;;;;3.70;2.90;;;;;;;;;;4514258;28;20261;-71
2021/10/08 08:13:15;;;;;;;3.57;2.60;;;;;;;;;;4526135;28;20121;-70
2021/10/08 08:15:26;;;;;;;3.90;3.03;;;;;;;;;;4519297;28;20041;-71
2021/10/08 08:17:36;;;;;;;4.00;3.07;;;;;;;;;;4526149;28;20046;-70
2021/10/08 08:19:47;;;;;;;4.63;2.90;;;;;;;;;;4526683;28;20116;-71
2021/10/08 08:21:57;;;;;;;4.17;3.23;;;;;;;;;;4512231;28;20109;-70
2021/10/08 08:24:08;;;;;;;4.07;3.10;;;;;;;;;;4526256;28;20595;-71
2021/10/08 08:26:19;;;;;;;4.07;3.20;;;;;;;;;;4525406;28;20046;-71
2021/10/08 08:28:29;;;;;;;4.30;3.00;;;;;;;;;;4509817;28;20034;-71
2021/10/08 08:30:41;;;;;;;3.53;2.83;;;;;;;;;;4525663;28;20962;-72
2021/10/08 08:32:52;;;;;;;3.15;2.78;;;;;;;;;;4526186;28;20202;-71
2021/10/08 08:35:04;;;;;;;4.13;2.90;;;;;;;;;;4524471;28;20113;-70
2021/10/08 08:37:14;;;;;;;3.45;2.60;;;;;;;;;;4524879;28;20095;-71
2021/10/08 08:39:25;;;;;;;3.40;2.80;;;;;;;;;;4503297;28;20045;-70
2021/10/08 08:41:36;;;;;;;4.00;3.00;;;;;;;;;;4527454;28;20037;-71
2021/10/08 08:43:47;;;;;;;3.30;2.63;;;;;;;;;;4524484;28;20615;-71
2021/10/08 08:45:57;;;;;;;4.00;3.00;;;;;;;;;;4524807;28;20084;-71
2021/10/08 08:48:10;;;;;;;3.33;2.63;;;;;;;;;;4512315;28;20056;-70
2021/10/08 08:50:20;;;;;;;3.15;2.55;;;;;;;;;;4524898;28;20037;-71
2021/10/08 08:52:30;;;;;;;4.17;2.77;;;;;;;;;;4524937;28;26082;-71
2021/10/08 08:54:42;;;;;;;4.23;2.97;;;;;;;;;;4524531;28;20064;-70
2021/10/08 08:56:52;;;;;;;3.65;2.75;;;;;;;;;;4524642;28;20623;-71
2021/10/08 08:59:13;;;;;;;4.10;3.10;;;;;;;;;;4525818;28;20033;-71
2021/10/08 09:01:23;;;;;;;3.70;3.00;;;;;;;;;;4526080;28;20092;-70
2021/10/08 09:03:34;;;;;;;3.37;2.67;;;;;;;;;;4523467;28;20171;-70
2021/10/08 09:05:47;;;;;;;3.50;2.70;;;;;;;;;;4525607;28;20041;-70
2021/10/08 09:08:04;;;;;;;4.28;3.17;;;;;;;;;;4526306;28;20041;-70
2021/10/08 09:10:21;;;;;;;4.88;2.92;;;;;;;;;;4512170;28;20038;-69
2021/10/08 09:12:31;;;;;;;3.70;2.70;;;;;;;;;;4526623;28;20126;-70
2021/10/08 09:14:42;;;;;;;4.37;3.13;;;;;;;;;;4509147;28;20113;-70
2021/10/08 09:17:08;;;;;;;4.50;3.20;;;;;;;;;;4517894;28;20069;-70
2021/10/08 09:19:18;;;;;;;3.38;2.60;;;;;;;;;;4524184;28;20041;-70
2021/10/08 09:21:32;;;;;;;3.97;2.70;;;;;;;;;;4524285;28;20033;-70
2021/10/08 09:23:48;;;;;;;3.60;2.75;;;;;;;;;;4523699;28;20441;-70
2021/10/08 09:25:58;;;;;;;4.00;2.67;;;;;;;;;;4511929;28;20041;-70
2021/10/08 09:28:11;;;;;;;3.00;2.43;;;;;;;;;;4526975;28;20042;-70
2021/10/08 09:30:27;;;;;;;3.30;2.50;;;;;;;;;;4527932;28;20314;-70
2021/10/08 09:32:42;;;;;;;3.47;2.67;;;;;;;;;;4509989;28;20097;-70
2021/10/08 09:35:05;;;;;;;3.05;2.70;;;;;;;;;;4520734;28;20708;-70
2021/10/08 09:37:17;;;;;;;3.60;2.63;;;;;;;;;;4528211;28;20132;-70
2021/10/08 09:39:33;;;;;;;3.88;2.65;;;;;;;;;;4527163;28;20044;-70
2021/10/08 09:41:44;;;;;;;3.08;2.47;;;;;;;;;;4527472;28;20064;-70
2021/10/08 09:43:55;;;;;;;3.42;2.50;;;;;;;;;;4498307;28;20030;-70
2021/10/08 09:46:05;;;;;;;2.73;2.20;;;;;;;;;;4509928;28;20045;-71
2021/10/08 09:48:17;;;;;;;2.53;2.07;;;;;;;;;;4529254;28;20072;-71
2021/10/08 09:50:27;;;;;;;4.03;2.35;;;;;;;;;;4529488;28;20029;-70
2021/10/08 09:52:38;;;;;;;2.27;1.83;;;;;;;;;;4527356;28;20041;-71
2021/10/08 09:54:50;;;;;;;2.97;2.20;;;;;;;;;;4514166;28;20037;-70
2021/10/08 09:57:00;;;;;;;2.95;2.00;;;;;;;;;;4527929;28;20133;-71
2021/10/08 09:59:12;;;;;;;2.47;1.93;;;;;;;;;;4526667;28;20048;-71
2021/10/08 10:01:25;;;;;;;2.63;1.88;;;;;;;;;;4526196;28;20033;-70
2021/10/08 10:03:35;;;;;;;2.85;2.10;;;;;;;;;;4510043;28;20602;-70
2021/10/08 10:05:46;;;;;;;2.93;1.87;;;;;;;;;;4526420;28;20041;-70
2021/10/08 10:07:57;;;;;;;2.90;1.87;;;;;;;;;;4526833;28;20083;-70
2021/10/08 10:10:07;;;;;;;2.67;2.05;;;;;;;;;;4527048;28;20600;-70
2021/10/08 10:12:19;;;;;;;3.23;1.90;;;;;;;;;;4529412;28;20575;-69
2021/10/08 10:14:30;;;;;;;2.80;1.95;;;;;;;;;;4511440;28;20025;-70
2021/10/08 10:16:40;;;;;;;2.10;1.70;;;;;;;;;;4513921;28;20033;-69
2021/10/08 10:18:52;;;;;;;3.90;2.10;;;;;;;;;;4493927;28;20045;-70
2021/10/08 10:21:03;;;;;;;2.58;1.50;;;;;;;;;;4526740;28;21018;-70
2021/10/08 10:23:16;;;;;;;3.70;1.70;;;;;;;;;;4510326;28;20168;-71
2021/10/08 10:25:26;;;;;;;2.40;1.40;;;;;;;;;;4509477;28;20034;-71
2021/10/08 10:27:42;;;;;;;1.90;1.30;;;;;;;;;;4527180;28;20044;-70
2021/10/08 10:29:52;;;;;;;2.17;1.63;;;;;;;;;;4527829;28;21056;-70
2021/10/08 10:32:05;;;;;;;2.47;1.70;;;;;;;;;;4508979;28;20077;-70
2021/10/08 10:34:15;;;;;;;3.00;1.42;;;;;;;;;;4528303;28;20571;-70
2021/10/08 10:36:28;;;;;;;3.73;1.33;;;;;;;;;;4510771;28;24589;-69
2021/10/08 10:38:40;;;;;;;2.83;1.42;;;;;;;;;;4515447;28;20136;-70
2021/10/08 10:41:08;;;;;;;2.63;1.40;;;;;;;;;;4528946;28;20728;-70
2021/10/08 10:43:19;;;;;;;2.30;1.33;;;;;;;;;;4526458;28;20144;-71
2021/10/08 10:45:29;;;;;;;2.97;1.30;;;;;;;;;;4526576;28;20050;-70
2021/10/08 10:47:41;;;;;;;2.63;1.33;;;;;;;;;;4528369;28;20064;-71
2021/10/08 10:50:10;;;;;;;1.70;1.20;;;;;;;;;;4520288;28;20148;-68
2021/10/08 10:52:23;;;;;;;2.38;1.20;;;;;;;;;;4526787;28;20056;-69
2021/10/08 10:54:33;;;;;;;2.17;1.00;;;;;;;;;;4507845;28;20060;-69
2021/10/08 10:56:44;;;;;;;1.53;0.97;;;;;;;;;;4519766;28;20144;-68
2021/10/08 10:59:29;;;;;;;2.40;1.10;;;;;;;;;;4526362;28;20042;-69
2021/10/08 11:04:25;;;;;;;1.17;0.85;;;;;;;;;;4526181;28;20037;-69
2021/10/08 11:07:02;;;;;;;1.77;1.00;;;;;;;;;;4509947;28;20042;-69
2021/10/08 11:09:17;;;;;;;1.27;0.80;;;;;;;;;;4525850;28;20033;-69
2021/10/08 11:11:28;;;;;;;0.82;0.70;;;;;;;;;;4529371;28;21053;-69
2021/10/08 11:13:38;;;;;;;1.53;0.83;;;;;;;;;;4526985;28;20045;-69
2021/10/08 11:15:53;;;;;;;1.33;0.80;;;;;;;;;;4526574;28;20033;-69
2021/10/08 11:18:04;;;;;;;1.17;0.80;;;;;;;;;;4528303;28;20033;-69
2021/10/08 11:20:42;;;;;;;1.30;0.90;;;;;;;;;;4527797;28;20780;-69
2021/10/08 11:22:53;;;;;;;1.90;0.90;;;;;;;;;;4517195;28;20646;-68
2021/10/08 11:25:05;;;;;;;1.52;1.05;;;;;;;;;;4526714;28;20120;-69
2021/10/08 11:27:16;;;;;;;3.03;1.00;;;;;;;;;;4527611;28;20885;-69
2021/10/08 11:29:30;;;;;;;0.97;0.80;;;;;;;;;;4511236;28;20133;-69
2021/10/08 11:31:40;;;;;;;0.95;0.85;;;;;;;;;;4527450;28;20146;-69
2021/10/08 11:33:53;;;;;;;1.70;0.80;;;;;;;;;;4526408;28;20087;-69
2021/10/08 11:36:15;;;;;;;1.90;0.80;;;;;;;;;;4514456;28;20637;-69
2021/10/08 11:38:26;;;;;;;1.13;0.70;;;;;;;;;;4509905;28;20061;-69
2021/10/08 11:40:44;;;;;;;2.10;0.73;;;;;;;;;;4507975;28;20503;-69
2021/10/08 11:43:00;;;;;;;1.02;0.80;;;;;;;;;;4526199;28;20029;-70
2021/10/08 11:45:15;;;;;;;1.90;0.90;;;;;;;;;;4524881;28;20041;-69
2021/10/08 11:47:32;;;;;;;1.08;0.90;;;;;;;;;;4526238;28;20049;-69
2021/10/08 11:49:58;;;;;;;1.10;1.00;;;;;;;;;;4513344;28;20045;-69
2021/10/08 11:52:10;;;;;;;0.90;0.73;;;;;;;;;;4526039;28;20037;-69
2021/10/08 11:54:21;;;;;;;1.42;1.05;;;;;;;;;;4527044;28;20508;-69
2021/10/08 11:56:34;;;;;;;2.87;0.93;;;;;;;;;;4491238;28;20878;-69
2021/10/08 11:58:44;;;;;;;2.10;1.00;;;;;;;;;;4508553;28;20030;-69
2021/10/08 12:00:55;;;;;;;1.97;1.00;;;;;;;;;;4507940;28;20042;-69
2021/10/08 12:03:19;;;;;;;1.85;1.10;;;;;;;;;;4527095;28;20030;-69
2021/10/08 12:05:49;;;;;;;1.70;0.90;;;;;;;;;;4506678;28;20053;-70
2021/10/08 12:08:03;;;;;;;1.17;0.98;;;;;;;;;;4510966;28;20045;-70
2021/10/08 12:10:14;;;;;;;1.25;0.98;;;;;;;;;;4525993;28;20064;-69
2021/10/08 12:12:24;;;;;;;1.33;0.93;;;;;;;;;;4525400;28;26755;-70
2021/10/08 12:14:42;;;;;;;1.57;1.10;;;;;;;;;;4508443;28;20474;-69
2021/10/08 12:16:53;;;;;;;1.10;1.00;;;;;;;;;;4527855;28;20626;-69
2021/10/08 12:19:04;;;;;;;1.07;0.90;;;;;;;;;;4525985;28;20077;-69
2021/10/08 12:21:18;;;;;;;1.58;1.00;;;;;;;;;;4508799;28;20034;-69
2021/10/08 12:23:28;;;;;;;1.67;1.00;;;;;;;;;;4526485;28;20033;-70
2021/10/08 12:25:44;;;;;;;1.77;1.10;;;;;;;;;;4495904;28;20054;-69
2021/10/08 12:27:54;;;;;;;1.92;1.10;;;;;;;;;;4519373;28;20069;-69
2021/10/08 12:30:05;;;;;;;2.43;1.10;;;;;;;;;;4525992;28;20528;-70
2021/10/08 12:32:19;;;;;;;1.60;0.90;;;;;;;;;;4524041;28;20106;-69
2021/10/08 12:34:47;;;;;;;1.58;1.10;;;;;;;;;;4505651;28;20030;-69
2021/10/08 12:36:58;;;;;;;2.30;1.08;;;;;;;;;;4511012;28;20047;-69
2021/10/08 12:39:16;;;;;;;2.13;1.27;;;;;;;;;;4523535;28;20057;-68
2021/10/08 12:41:31;;;;;;;1.35;1.10;;;;;;;;;;4524092;28;20068;-69
2021/10/08 12:43:42;;;;;;;1.30;1.00;;;;;;;;;;4510756;28;20046;-68
2021/10/08 12:45:54;;;;;;;1.43;1.10;;;;;;;;;;4526474;28;20049;-69
2021/10/08 12:48:05;;;;;;;2.35;1.35;;;;;;;;;;4523707;28;20049;-69
2021/10/08 12:50:19;;;;;;;1.87;1.50;;;;;;;;;;4507164;28;24048;-68
2021/10/08 12:52:39;;;;;;;1.30;1.20;;;;;;;;;;4517276;28;20647;-69
2021/10/08 12:55:05;;;;;;;1.38;1.10;;;;;;;;;;4518188;28;20068;-69
2021/10/08 12:57:20;;;;;;;1.63;1.20;;;;;;;;;;4525658;28;20036;-69
2021/10/08 12:59:47;;;;;;;2.17;1.13;;;;;;;;;;4524451;28;20030;-68
2021/10/08 13:01:57;;;;;;;1.65;1.20;;;;;;;;;;4508056;28;20049;-69
2021/10/08 13:04:20;;;;;;;1.40;1.30;;;;;;;;;;4525795;28;20044;-68
2021/10/08 13:06:32;;;;;;;1.80;1.30;;;;;;;;;;4525380;28;20053;-68
2021/10/08 13:09:02;;;;;;;1.35;1.20;;;;;;;;;;4526871;28;20037;-69
2021/10/08 13:11:13;;;;;;;1.40;1.30;;;;;;;;;;4506704;28;20030;-68
2021/10/08 13:13:29;;;;;;;1.33;1.20;;;;;;;;;;4525873;28;20026;-69
2021/10/08 13:15:42;;;;;;;1.35;1.10;;;;;;;;;;4523349;28;20044;-69
2021/10/08 13:18:11;;;;;;;1.70;1.20;;;;;;;;;;4524165;28;20808;-69
2021/10/08 13:20:21;;;;;;;1.60;1.15;;;;;;;;;;4523683;28;20135;-69
2021/10/08 13:22:32;;;;;;;1.47;1.20;;;;;;;;;;4511385;28;20092;-69
2021/10/08 13:24:42;;;;;;;2.73;1.60;;;;;;;;;;4524192;28;20044;-69